Time;durP1;ratioP1;P1;durP2;ratioP2;P2;SDS_P1;SDS_P2;PMS_P1;PMS_P2;Temp;Humidity;BMP_temperature;BMP_pressure;BME280_temperature;BME280_humidity;BME280_pressure;Samples;Min_cycle;Max_cycle;Signal;HPM_P1;HPM_P2
2021/08/27 00:00:42;;;;;;;26.85;8.75;;;;;;;21.06;62.64;100201.91;5033056;28;20509;-65
2021/08/27 00:03:08;;;;;;;24.70;9.23;;;;;;;21.15;62.63;100224.47;5032288;28;20081;-65
2021/08/27 00:05:35;;;;;;;21.25;8.82;;;;;;;21.15;62.72;100215.94;5032577;28;20053;-64
2021/08/27 00:08:03;;;;;;;19.42;8.98;;;;;;;21.14;62.60;100206.59;5032089;28;20120;-65
2021/08/27 00:10:29;;;;;;;14.38;9.05;;;;;;;21.02;62.56;100201.78;5032576;28;20482;-65
2021/08/27 00:12:56;;;;;;;18.40;10.07;;;;;;;21.08;62.53;100210.06;5031866;28;20049;-65
2021/08/27 00:15:23;;;;;;;22.02;9.18;;;;;;;20.96;62.71;100199.56;5032259;28;20132;-63
2021/08/27 00:17:50;;;;;;;18.67;8.52;;;;;;;20.88;62.67;100192.81;5031590;28;20047;-64
2021/08/27 00:20:17;;;;;;;19.63;9.70;;;;;;;20.91;62.65;100200.63;5032319;28;20128;-64
2021/08/27 00:22:44;;;;;;;24.67;10.40;;;;;;;20.94;62.98;100191.41;5032284;28;20080;-63
2021/08/27 00:25:11;;;;;;;33.72;10.82;;;;;;;20.91;62.91;100185.63;5032162;28;20136;-63
2021/08/27 00:27:38;;;;;;;18.10;8.65;;;;;;;20.93;62.91;100188.94;5032183;28;20089;-63
2021/08/27 00:30:06;;;;;;;17.88;8.90;;;;;;;20.73;63.06;100162.38;5040258;28;20213;-63
2021/08/27 00:32:33;;;;;;;18.17;8.88;;;;;;;20.89;62.93;100194.50;5051970;28;20550;-63
2021/08/27 00:35:03;;;;;;;17.27;8.50;;;;;;;20.76;63.16;100173.84;5051378;28;20096;-64
2021/08/27 00:37:34;;;;;;;20.48;9.25;;;;;;;20.82;63.04;100180.09;5050916;28;20068;-64
2021/08/27 00:40:04;;;;;;;30.50;13.38;;;;;;;20.72;63.21;100166.41;5032125;28;20462;-64
2021/08/27 00:42:31;;;;;;;20.20;11.15;;;;;;;20.69;63.21;100167.94;5032101;28;20133;-64
2021/08/27 00:44:57;;;;;;;19.73;10.88;;;;;;;20.70;63.14;100169.59;5031772;28;20541;-64
2021/08/27 00:47:24;;;;;;;23.10;9.77;;;;;;;20.62;63.10;100158.41;5031992;28;20124;-64
2021/08/27 00:49:51;;;;;;;23.52;8.73;;;;;;;20.69;63.49;100175.63;5031890;28;20096;-64
2021/08/27 00:52:18;;;;;;;22.38;9.35;;;;;;;20.65;63.30;100171.84;5032692;28;20073;-64
2021/08/27 00:54:49;;;;;;;16.80;9.23;;;;;;;20.63;63.43;100168.56;5031814;28;20120;-64
2021/08/27 00:57:16;;;;;;;17.20;8.65;;;;;;;20.66;63.44;100173.50;5032140;28;20141;-64
2021/08/27 00:59:43;;;;;;;15.45;8.60;;;;;;;20.45;63.76;100139.59;5032052;28;20569;-64
2021/08/27 01:02:10;;;;;;;19.40;9.02;;;;;;;20.43;63.66;100139.94;5035527;28;20140;-64
2021/08/27 01:04:40;;;;;;;17.60;9.23;;;;;;;20.63;63.45;100162.88;5051613;28;20053;-64
2021/08/27 01:07:19;;;;;;;17.67;8.30;;;;;;;20.44;63.60;100143.59;5033852;28;20053;-64
2021/08/27 01:10:15;;;;;;;23.90;10.38;;;;;;;20.50;63.69;100151.53;5032528;28;20045;-64
2021/08/27 01:12:45;;;;;;;22.98;9.70;;;;;;;20.55;63.80;100162.66;5030846;28;20133;-64
2021/08/27 01:15:18;;;;;;;25.23;9.25;;;;;;;20.53;63.67;100164.19;5031624;28;20085;-64
2021/08/27 01:17:52;;;;;;;16.65;8.48;;;;;;;20.52;63.76;100163.38;5031503;28;20128;-64
2021/08/27 01:20:31;;;;;;;18.73;9.57;;;;;;;20.52;63.51;100160.53;5034269;28;20137;-64
2021/08/27 01:23:20;;;;;;;16.65;8.30;;;;;;;20.46;63.74;100163.94;5035565;28;20048;-64
2021/08/27 01:25:52;;;;;;;15.93;8.20;;;;;;;20.34;63.66;100145.75;5035485;28;20091;-64
2021/08/27 01:28:22;;;;;;;19.50;9.43;;;;;;;20.27;63.80;100151.22;5035342;28;20132;-64
2021/08/27 01:31:14;;;;;;;19.35;9.13;;;;;;;20.33;63.95;100163.94;5035220;28;20501;-64
2021/08/27 01:33:54;;;;;;;16.30;8.85;;;;;;;20.34;64.04;100162.78;5035102;28;20050;-64
2021/08/27 01:36:22;;;;;;;17.83;9.18;;;;;;;20.35;64.26;100166.44;5034812;28;20046;-64
2021/08/27 01:38:50;;;;;;;23.20;9.73;;;;;;;20.36;64.30;100165.25;5034873;28;20049;-64
2021/08/27 01:41:17;;;;;;;22.10;9.80;;;;;;;20.28;64.33;100152.03;5035042;28;20155;-64
2021/08/27 01:43:48;;;;;;;20.55;8.90;;;;;;;20.31;64.76;100137.16;5035776;28;20076;-64
2021/08/27 01:46:17;;;;;;;19.10;8.52;;;;;;;20.48;64.33;100156.72;5034794;28;20128;-64
2021/08/27 01:48:45;;;;;;;21.38;9.77;;;;;;;20.48;64.62;100148.22;5035335;28;20124;-64
2021/08/27 01:51:14;;;;;;;23.77;8.57;;;;;;;20.47;64.64;100155.06;5034620;28;20136;-64
2021/08/27 01:53:42;;;;;;;20.85;10.00;;;;;;;20.50;64.78;100153.53;5034770;28;20135;-64
2021/08/27 01:56:09;;;;;;;18.60;8.10;;;;;;;20.45;64.84;100146.09;5035116;28;20076;-64
2021/08/27 01:58:37;;;;;;;19.65;9.40;;;;;;;20.50;64.91;100145.00;5034701;28;20050;-64
2021/08/27 02:01:06;;;;;;;28.67;8.80;;;;;;;20.47;64.75;100129.53;5040316;28;20059;-64
2021/08/27 02:03:34;;;;;;;17.85;8.13;;;;;;;20.57;64.89;100134.75;5053688;28;20124;-64
2021/08/27 02:06:01;;;;;;;20.08;9.40;;;;;;;20.62;64.48;100149.88;5041479;28;20068;-64
2021/08/27 02:08:30;;;;;;;17.00;8.70;;;;;;;20.65;64.70;100146.31;5033329;28;20073;-64
2021/08/27 02:10:58;;;;;;;16.92;8.15;;;;;;;20.55;64.66;100134.28;5034504;28;20516;-64
2021/08/27 02:13:27;;;;;;;17.25;7.90;;;;;;;20.60;64.51;100136.03;5033477;28;20049;-64
2021/08/27 02:15:54;;;;;;;21.17;8.67;;;;;;;20.53;64.10;100142.31;5036451;28;20446;-64
2021/08/27 02:18:21;;;;;;;15.30;7.85;;;;;;;20.54;64.31;100152.47;5053404;28;20083;-64
2021/08/27 02:20:49;;;;;;;28.88;9.02;;;;;;;20.54;64.24;100152.47;5053389;28;20084;-64
2021/08/27 02:23:17;;;;;;;30.85;13.35;;;;;;;20.43;63.96;100145.63;5053184;28;20511;-64
2021/08/27 02:25:47;;;;;;;19.27;11.27;;;;;;;20.46;64.32;100144.91;5054585;28;20128;-64
2021/08/27 02:28:15;;;;;;;26.13;10.25;;;;;;;20.49;64.52;100146.22;5048330;28;20136;-64
2021/08/27 02:30:43;;;;;;;27.15;12.30;;;;;;;20.50;64.27;100137.34;5032377;28;20079;-64
2021/08/27 02:33:11;;;;;;;27.52;13.05;;;;;;;20.50;64.48;100143.03;5049688;28;20059;-64
2021/08/27 02:35:40;;;;;;;22.15;9.88;;;;;;;20.42;64.39;100128.97;5053239;28;20458;-64
2021/08/27 02:38:12;;;;;;;20.63;9.18;;;;;;;20.43;65.20;100130.63;5033904;28;20077;-64
2021/08/27 02:40:39;;;;;;;17.63;9.18;;;;;;;20.48;64.73;100144.56;5033879;28;20132;-64
2021/08/27 02:43:06;;;;;;;18.48;9.00;;;;;;;20.47;64.94;100155.06;5033960;28;20137;-63
2021/08/27 02:45:33;;;;;;;19.05;8.52;;;;;;;20.46;64.95;100149.75;5033932;28;20125;-64
2021/08/27 02:48:00;;;;;;;18.33;7.57;;;;;;;20.46;64.98;100144.91;5033931;28;20579;-64
2021/08/27 02:50:30;;;;;;;18.60;9.85;;;;;;;20.48;64.82;100151.06;5034136;28;20133;-63
2021/08/27 02:53:04;;;;;;;24.25;9.25;;;;;;;20.47;64.92;100154.22;5033765;28;20084;-64
2021/08/27 02:55:39;;;;;;;28.40;8.93;;;;;;;20.46;64.83;100156.25;5033509;28;20541;-63
2021/08/27 02:58:11;;;;;;;19.95;8.90;;;;;;;20.25;64.90;100119.53;5033841;28;20145;-64
2021/08/27 03:00:50;;;;;;;21.77;10.43;;;;;;;20.50;64.88;100147.84;5033045;28;20092;-63
2021/08/27 03:03:22;;;;;;;18.92;9.27;;;;;;;20.54;65.00;100155.31;5033590;28;20046;-65
2021/08/27 03:05:53;;;;;;;19.98;10.10;;;;;;;20.41;65.03;100130.13;5032109;28;20080;-64
2021/08/27 03:08:24;;;;;;;21.70;9.75;;;;;;;20.49;64.98;100143.38;5033692;28;20534;-64
2021/08/27 03:11:06;;;;;;;19.58;8.82;;;;;;;20.57;64.81;100150.94;5033283;28;20104;-64
2021/08/27 03:13:39;;;;;;;16.52;8.18;;;;;;;20.47;64.57;100143.72;5038007;28;20089;-64
2021/08/27 03:16:09;;;;;;;21.80;8.80;;;;;;;20.45;64.52;100139.59;5033337;28;20105;-64
2021/08/27 03:18:49;;;;;;;15.85;8.68;;;;;;;20.47;64.59;100142.88;5033326;28;20045;-64
2021/08/27 03:21:28;;;;;;;17.00;7.68;;;;;;;20.40;64.41;100148.34;5031953;28;20137;-63
2021/08/27 03:23:59;;;;;;;15.02;7.97;;;;;;;20.35;64.59;100135.25;5050596;28;20120;-64
2021/08/27 03:26:31;;;;;;;16.95;8.65;;;;;;;20.28;64.53;100149.19;5052157;28;20608;-64
2021/08/27 03:29:02;;;;;;;22.45;8.65;;;;;;;20.20;64.76;100139.59;5051800;28;20072;-63
2021/08/27 03:31:29;;;;;;;19.08;9.13;;;;;;;20.05;64.91;100135.50;5051263;28;20077;-64
2021/08/27 03:33:59;;;;;;;23.65;8.70;;;;;;;20.06;65.03;100153.31;5032903;28;20060;-63
2021/08/27 03:36:28;;;;;;;21.50;8.85;;;;;;;19.98;65.20;100148.59;5032828;28;20057;-63
2021/08/27 03:38:57;;;;;;;15.80;8.47;;;;;;;19.83;65.15;100131.13;5033230;28;20124;-63
2021/08/27 03:41:28;;;;;;;20.77;9.15;;;;;;;19.91;65.20;100142.69;5033354;28;20378;-63
2021/08/27 03:43:56;;;;;;;15.82;9.55;;;;;;;19.89;65.08;100143.88;5032766;28;20084;-63
2021/08/27 03:46:24;;;;;;;15.90;7.45;;;;;;;19.86;65.17;100140.91;5041015;28;20080;-63
2021/08/27 03:48:51;;;;;;;23.85;9.77;;;;;;;19.81;65.42;100139.16;5052535;28;20049;-63
2021/08/27 03:51:19;;;;;;;19.17;9.95;;;;;;;19.67;65.55;100126.50;5051294;28;20052;-63
2021/08/27 03:53:46;;;;;;;18.67;9.73;;;;;;;19.68;65.43;100133.81;5052936;28;20135;-63
2021/08/27 03:56:14;;;;;;;18.88;9.20;;;;;;;19.69;65.24;100127.78;5035641;28;20136;-63
2021/08/27 03:58:43;;;;;;;23.90;10.88;;;;;;;19.71;65.83;100133.13;5033131;28;20128;-63
2021/08/27 04:01:10;;;;;;;24.80;10.32;;;;;;;19.69;65.69;100147.63;5046938;28;20132;-63
2021/08/27 04:03:37;;;;;;;25.35;11.07;;;;;;;19.68;65.33;100143.16;5051980;28;20041;-64
2021/08/27 04:06:09;;;;;;;19.52;10.07;;;;;;;19.64;65.50;100143.03;5033191;28;20129;-64
2021/08/27 04:08:40;;;;;;;20.92;9.32;;;;;;;19.61;65.59;100140.84;5032452;28;20092;-64
2021/08/27 04:11:10;;;;;;;25.25;9.93;;;;;;;19.54;65.42;100132.13;5032402;28;20561;-64
2021/08/27 04:13:37;;;;;;;25.85;10.85;;;;;;;19.55;65.29;100147.91;5032359;28;20049;-64
2021/08/27 04:16:05;;;;;;;19.15;10.88;;;;;;;19.43;65.87;100147.91;5032803;28;20045;-64
2021/08/27 04:18:32;;;;;;;23.63;11.05;;;;;;;19.53;65.63;100144.63;5032583;28;20061;-63
2021/08/27 04:21:02;;;;;;;22.55;11.93;;;;;;;19.50;65.84;100142.50;5032858;28;20081;-63
2021/08/27 04:23:29;;;;;;;31.13;12.43;;;;;;;19.46;65.86;100130.22;5047020;28;20132;-63
2021/08/27 04:25:56;;;;;;;28.92;11.75;;;;;;;19.55;66.02;100130.09;5032204;28;20494;-64
2021/08/27 04:28:23;;;;;;;24.02;12.88;;;;;;;19.50;66.07;100124.69;5046796;28;20073;-63
2021/08/27 04:30:50;;;;;;;24.52;11.27;;;;;;;19.64;65.60;100140.19;5032108;28;20088;-63
2021/08/27 04:33:18;;;;;;;25.45;11.00;;;;;;;19.63;65.49;100140.56;5032376;28;20049;-63
2021/08/27 04:35:44;;;;;;;26.25;11.32;;;;;;;19.61;65.67;100143.69;5032032;28;20132;-63
2021/08/27 04:38:11;;;;;;;25.58;11.10;;;;;;;19.65;65.55;100138.19;5048624;28;20238;-63
2021/08/27 04:40:38;;;;;;;22.65;12.35;;;;;;;19.64;65.62;100140.19;5052189;28;20095;-64
2021/08/27 04:43:05;;;;;;;22.42;11.77;;;;;;;19.62;65.44;100139.69;5052226;28;20474;-64
2021/08/27 04:45:32;;;;;;;21.33;10.68;;;;;;;19.59;65.98;100143.22;5049008;28;20508;-65
2021/08/27 04:47:59;;;;;;;28.38;11.68;;;;;;;19.51;66.09;100121.47;5032073;28;20057;-65
2021/08/27 04:50:25;;;;;;;35.30;12.52;;;;;;;19.64;66.02;100153.53;5032955;28;20116;-65
2021/08/27 04:52:54;;;;;;;23.27;10.85;;;;;;;19.60;65.97;100133.53;5031751;28;20048;-65
2021/08/27 04:55:21;;;;;;;28.45;11.80;;;;;;;19.72;65.95;100151.75;5034605;28;20046;-64
2021/08/27 04:57:48;;;;;;;27.80;12.50;;;;;;;19.69;65.86;100135.47;5035836;28;20080;-64
2021/08/27 05:00:15;;;;;;;22.52;10.90;;;;;;;19.67;65.91;100121.66;5035777;28;20085;-64
2021/08/27 05:02:42;;;;;;;21.48;10.57;;;;;;;19.77;65.83;100143.06;5035911;28;20049;-64
2021/08/27 05:05:10;;;;;;;23.73;11.63;;;;;;;19.61;66.05;100106.88;5035525;28;20493;-64
2021/08/27 05:07:37;;;;;;;26.00;10.52;;;;;;;19.76;66.06;100144.22;5035986;28;20137;-64
2021/08/27 05:10:04;;;;;;;20.38;10.68;;;;;;;19.72;65.93;100134.75;5035870;28;20120;-64
2021/08/27 05:12:32;;;;;;;19.42;10.52;;;;;;;19.77;65.87;100152.38;5035735;28;20128;-64
2021/08/27 05:14:59;;;;;;;27.63;11.65;;;;;;;19.75;65.92;100156.72;5035512;28;20129;-64
2021/08/27 05:17:26;;;;;;;24.63;11.68;;;;;;;19.65;65.87;100141.00;5035354;28;20084;-64
2021/08/27 05:19:53;;;;;;;20.08;10.45;;;;;;;19.77;66.08;100154.38;5035566;28;20088;-64
2021/08/27 05:22:20;;;;;;;25.58;11.43;;;;;;;19.78;66.18;100153.19;5035553;28;20045;-64
2021/08/27 05:24:46;;;;;;;22.88;11.00;;;;;;;19.79;65.98;100158.50;5036268;28;20338;-64
2021/08/27 05:27:13;;;;;;;25.17;10.30;;;;;;;19.71;65.92;100133.13;5035964;28;20042;-64
2021/08/27 05:29:40;;;;;;;28.55;11.02;;;;;;;19.76;65.89;100149.88;5035101;28;20132;-64
2021/08/27 05:32:07;;;;;;;20.30;9.95;;;;;;;19.71;65.85;100138.78;5035224;28;20179;-64
2021/08/27 05:34:35;;;;;;;23.48;11.88;;;;;;;19.79;65.68;100158.50;5035416;28;20046;-64
2021/08/27 05:37:02;;;;;;;26.30;10.65;;;;;;;19.81;65.94;100158.16;5035284;28;20413;-64
2021/08/27 05:39:29;;;;;;;26.13;11.15;;;;;;;19.81;66.14;100161.00;5035132;28;20084;-64
2021/08/27 05:41:57;;;;;;;29.75;11.68;;;;;;;19.76;65.79;100144.22;5035602;28;20501;-64
2021/08/27 05:44:24;;;;;;;25.58;11.70;;;;;;;19.82;66.14;100159.81;5035304;28;20128;-64
2021/08/27 05:46:51;;;;;;;19.52;10.07;;;;;;;19.75;65.93;100151.06;5035401;28;20067;-64
2021/08/27 05:49:18;;;;;;;19.63;9.93;;;;;;;19.69;65.83;100158.13;5035058;28;20081;-64
2021/08/27 05:51:45;;;;;;;19.25;9.75;;;;;;;19.72;65.80;100163.91;5037401;28;20076;-64
2021/08/27 05:54:12;;;;;;;23.52;11.38;;;;;;;19.57;66.08;100154.06;5054506;28;20136;-64
2021/08/27 05:56:39;;;;;;;25.52;11.43;;;;;;;19.68;65.93;100174.31;5054719;28;20123;-64
2021/08/27 05:59:05;;;;;;;19.73;10.23;;;;;;;19.69;66.17;100169.47;5048480;28;20080;-64
2021/08/27 06:01:32;;;;;;;22.60;10.93;;;;;;;19.64;66.20;100154.34;5034453;28;20089;-64
2021/08/27 06:04:00;;;;;;;24.02;11.25;;;;;;;19.69;66.23;100163.78;5034908;28;20099;-64
2021/08/27 06:06:27;;;;;;;25.65;11.57;;;;;;;19.70;66.38;100156.97;5033537;28;20054;-64
2021/08/27 06:08:54;;;;;;;26.38;12.00;;;;;;;19.74;66.37;100166.41;5034694;28;20125;-64
2021/08/27 06:11:21;;;;;;;22.33;11.40;;;;;;;19.61;66.13;100174.84;5034412;28;20042;-64
2021/08/27 06:13:48;;;;;;;24.70;11.65;;;;;;;19.49;66.54;100169.19;5034787;28;20497;-64
2021/08/27 06:16:14;;;;;;;31.27;14.55;;;;;;;19.43;66.58;100179.06;5034956;28;20128;-64
2021/08/27 06:18:41;;;;;;;29.15;14.63;;;;;;;19.38;66.44;100177.28;5034720;28;20060;-64
2021/08/27 06:21:08;;;;;;;26.98;15.05;;;;;;;19.17;66.51;100154.66;5034278;28;20132;-64
2021/08/27 06:23:35;;;;;;;28.55;15.15;;;;;;;19.17;66.67;100165.97;5033246;28;20129;-64
2021/08/27 06:26:02;;;;;;;27.95;14.32;;;;;;;19.20;66.66;100178.63;5043350;28;20457;-64
2021/08/27 06:28:29;;;;;;;28.77;14.20;;;;;;;19.31;66.97;100193.16;5054107;28;20132;-64
2021/08/27 06:30:55;;;;;;;29.15;15.88;;;;;;;19.36;66.94;100202.28;5053931;28;20131;-63
2021/08/27 06:33:22;;;;;;;26.75;15.07;;;;;;;19.36;66.94;100190.13;5035850;28;20053;-63
2021/08/27 06:35:49;;;;;;;29.20;15.35;;;;;;;19.45;66.72;100199.34;5034275;28;20415;-63
2021/08/27 06:38:25;;;;;;;28.40;15.63;;;;;;;19.58;66.95;100220.03;5034140;28;20128;-63
2021/08/27 06:41:00;;;;;;;31.98;15.05;;;;;;;19.63;66.80;100217.84;5034179;28;20050;-63
2021/08/27 06:43:28;;;;;;;33.28;15.70;;;;;;;19.70;66.65;100216.47;5034003;28;20080;-64
2021/08/27 06:45:55;;;;;;;26.77;14.13;;;;;;;19.85;66.43;100224.28;5033869;28;20053;-64
2021/08/27 06:48:22;;;;;;;44.40;23.13;;;;;;;19.71;66.16;100190.59;5033930;28;20046;-64
2021/08/27 06:50:49;;;;;;;38.13;23.45;;;;;;;20.08;66.11;100221.84;5033770;28;20124;-63
2021/08/27 06:53:16;;;;;;;52.55;31.02;;;;;;;20.21;66.13;100232.00;5033493;28;20509;-63
2021/08/27 06:55:43;;;;;;;32.78;20.35;;;;;;;20.25;65.90;100215.13;5033681;28;20184;-64
2021/08/27 06:58:10;;;;;;;44.63;23.48;;;;;;;20.45;65.67;100236.03;5033696;28;20089;-63
2021/08/27 07:00:37;;;;;;;49.55;31.33;;;;;;;20.57;65.47;100233.19;5033539;28;20164;-63
2021/08/27 07:03:05;;;;;;;45.10;22.80;;;;;;;20.73;65.76;100241.81;5047642;28;20401;-63
2021/08/27 07:05:32;;;;;;;45.17;24.65;;;;;;;20.89;65.28;100242.75;5048218;28;20046;-63
2021/08/27 07:07:59;;;;;;;35.72;22.17;;;;;;;20.89;64.99;100231.41;5032161;28;20061;-63
2021/08/27 07:10:27;;;;;;;35.13;21.92;;;;;;;21.14;65.01;100245.53;5033929;28;20120;-64
2021/08/27 07:12:54;;;;;;;49.58;22.27;;;;;;;21.27;65.17;100244.31;5033255;28;20085;-64
2021/08/27 07:15:23;;;;;;;32.45;20.13;;;;;;;21.44;64.52;100249.72;5048139;28;20052;-64
2021/08/27 07:17:50;;;;;;;36.25;19.98;;;;;;;21.68;64.02;100262.16;5052944;28;20041;-64
2021/08/27 07:20:18;;;;;;;43.00;21.23;;;;;;;21.88;64.00;100249.72;5053243;28;20083;-63
2021/08/27 07:22:46;;;;;;;32.05;16.88;;;;;;;22.08;63.45;100249.81;5052320;28;20893;-64
2021/08/27 07:25:14;;;;;;;34.58;17.13;;;;;;;22.28;63.08;100256.47;5034389;28;20552;-65
2021/08/27 07:27:41;;;;;;;31.73;16.23;;;;;;;22.52;62.84;100258.28;5033146;28;20096;-64
2021/08/27 07:30:10;;;;;;;36.03;16.10;;;;;;;22.73;62.21;100257.97;5033034;28;20176;-64
2021/08/27 07:32:37;;;;;;;25.92;15.70;;;;;;;22.93;61.87;100263.38;5032942;28;20144;-64
2021/08/27 07:35:04;;;;;;;27.30;14.70;;;;;;;23.10;61.49;100261.31;5032917;28;20458;-65
2021/08/27 07:37:32;;;;;;;27.35;14.57;;;;;;;23.27;60.75;100255.19;5032778;28;20136;-64
2021/08/27 07:39:59;;;;;;;29.02;15.57;;;;;;;23.48;60.62;100259.69;5033664;28;20045;-64
2021/08/27 07:42:26;;;;;;;28.50;14.10;;;;;;;23.67;60.15;100256.03;5033044;28;20468;-64
2021/08/27 07:44:53;;;;;;;30.52;14.32;;;;;;;23.93;59.30;100255.31;5032803;28;20096;-63
2021/08/27 07:47:20;;;;;;;25.25;14.38;;;;;;;24.09;58.86;100258.88;5032566;28;20133;-64
2021/08/27 07:49:47;;;;;;;26.73;13.82;;;;;;;24.23;58.33;100259.13;5032583;28;20136;-64
2021/08/27 07:52:14;;;;;;;25.70;12.82;;;;;;;24.17;58.13;100217.88;5032233;28;20545;-64
2021/08/27 07:54:40;;;;;;;35.55;13.05;;;;;;;24.40;57.53;100237.00;5032400;28;20080;-64
2021/08/27 07:57:07;;;;;;;25.38;12.55;;;;;;;24.68;57.36;100253.78;5033104;28;20156;-64
2021/08/27 07:59:34;;;;;;;32.15;13.15;;;;;;;24.94;56.90;100261.56;5032644;28;20124;-64
2021/08/27 08:02:01;;;;;;;22.52;10.25;;;;;;;25.12;56.34;100248.38;5032456;28;20124;-64
2021/08/27 08:04:28;;;;;;;20.70;9.30;;;;;;;25.19;56.09;100241.94;5032448;28;20474;-64
2021/08/27 08:06:55;;;;;;;21.55;10.27;;;;;;;25.36;55.90;100249.09;5032471;28;20041;-64
2021/08/27 08:09:22;;;;;;;17.75;8.82;;;;;;;25.58;55.12;100253.06;5032390;28;20524;-64
2021/08/27 08:11:49;;;;;;;18.83;8.27;;;;;;;25.75;54.91;100253.25;5032276;28;20049;-64
2021/08/27 08:14:16;;;;;;;22.45;9.70;;;;;;;25.93;54.36;100262.06;5032809;28;20129;-64
2021/08/27 08:16:43;;;;;;;17.98;8.80;;;;;;;25.95;54.36;100233.91;5032410;28;20455;-64
2021/08/27 08:19:10;;;;;;;14.00;7.57;;;;;;;26.23;53.64;100264.00;5032168;28;20132;-64
2021/08/27 08:21:38;;;;;;;19.00;8.80;;;;;;;26.48;53.37;100261.41;5031156;28;20091;-64
2021/08/27 08:24:05;;;;;;;17.67;9.30;;;;;;;26.57;52.96;100261.91;5032258;28;20136;-64
2021/08/27 08:26:32;;;;;;;19.83;9.57;;;;;;;26.64;52.60;100259.09;5032171;28;20501;-64
2021/08/27 08:29:00;;;;;;;21.95;9.98;;;;;;;26.81;52.35;100271.91;5031391;28;20084;-64
2021/08/27 08:31:28;;;;;;;21.42;11.32;;;;;;;26.77;52.25;100261.59;5032629;28;20081;-63
2021/08/27 08:33:56;;;;;;;20.63;10.77;;;;;;;26.89;52.24;100261.31;5032126;28;20072;-64
2021/08/27 08:36:23;;;;;;;19.42;9.80;;;;;;;27.23;51.60;100281.19;5032102;28;20041;-64
2021/08/27 08:38:50;;;;;;;21.60;10.48;;;;;;;27.45;50.96;100277.19;5031259;28;20447;-63
2021/08/27 08:41:19;;;;;;;26.15;10.15;;;;;;;27.59;50.63;100280.16;5031973;28;20088;-64
2021/08/27 08:43:47;;;;;;;28.08;10.50;;;;;;;27.81;50.15;100283.13;5030799;28;20120;-63
2021/08/27 08:46:14;;;;;;;24.00;10.40;;;;;;;27.93;49.70;100279.88;5032822;28;20077;-63
2021/08/27 08:48:46;;;;;;;14.57;7.60;;;;;;;28.17;49.73;100277.47;5032457;28;20050;-63
2021/08/27 08:51:14;;;;;;;20.00;8.38;;;;;;;28.39;48.82;100295.59;5031687;28;20129;-63
2021/08/27 08:53:46;;;;;;;13.52;7.97;;;;;;;28.53;48.36;100287.81;5031941;28;20081;-62
2021/08/27 08:56:13;;;;;;;17.98;7.30;;;;;;;28.79;48.13;100291.50;5031775;28;20498;-63
2021/08/27 08:58:40;;;;;;;23.13;7.68;;;;;;;29.00;47.38;100290.69;5031891;28;20107;-64
2021/08/27 09:01:12;;;;;;;15.48;7.93;;;;;;;29.14;46.80;100295.59;5031877;28;20081;-64
2021/08/27 09:03:40;;;;;;;20.13;8.23;;;;;;;29.22;46.55;100285.69;5031793;28;20456;-64
2021/08/27 09:06:07;;;;;;;16.60;8.73;;;;;;;29.30;46.55;100290.22;5032394;28;20512;-64
2021/08/27 09:08:42;;;;;;;18.20;7.55;;;;;;;29.48;46.33;100279.47;5031888;28;20490;-64
2021/08/27 09:11:30;;;;;;;21.33;8.68;;;;;;;29.48;46.08;100279.47;5031994;28;20051;-64
2021/08/27 09:13:59;;;;;;;14.60;8.57;;;;;;;29.58;45.78;100291.34;5031722;28;20085;-63
2021/08/27 09:16:29;;;;;;;17.48;9.15;;;;;;;29.78;45.19;100283.91;5031716;28;20176;-63
2021/08/27 09:18:56;;;;;;;19.45;8.30;;;;;;;29.83;44.71;100286.31;5031574;28;20405;-63
2021/08/27 09:21:29;;;;;;;16.38;6.75;;;;;;;30.01;45.04;100291.16;5031800;28;20084;-64
2021/08/27 09:24:25;;;;;;;10.27;6.85;;;;;;;30.27;44.26;100292.69;5031628;28;20054;-64
2021/08/27 09:27:01;;;;;;;20.10;8.25;;;;;;;30.48;43.37;100289.66;5031500;28;20053;-64
2021/08/27 09:29:42;;;;;;;12.93;6.47;;;;;;;30.78;43.17;100291.91;5031535;28;20077;-64
2021/08/27 09:32:25;;;;;;;13.68;7.25;;;;;;;31.03;43.07;100294.53;5031653;28;20465;-63
2021/08/27 09:35:16;;;;;;;14.15;6.35;;;;;;;31.38;42.78;100286.78;5031463;28;20536;-63
2021/08/27 09:37:47;;;;;;;12.13;6.88;;;;;;;31.51;42.12;100278.38;5031301;28;20145;-63
2021/08/27 09:40:20;;;;;;;16.30;6.97;;;;;;;31.59;42.08;100283.66;5032974;28;20056;-63
2021/08/27 09:42:50;;;;;;;16.15;7.57;;;;;;;31.67;41.46;100280.69;5035053;28;20604;-63
2021/08/27 09:45:19;;;;;;;13.40;6.65;;;;;;;31.85;40.84;100279.16;5035213;28;20041;-63
2021/08/27 09:48:00;;;;;;;12.20;5.80;;;;;;;31.90;40.91;100272.16;5035290;28;20050;-63
2021/08/27 09:50:30;;;;;;;14.65;6.25;;;;;;;32.02;40.45;100283.09;5035225;28;20045;-63
2021/08/27 09:53:07;;;;;;;13.15;5.47;;;;;;;32.14;40.80;100273.03;5034870;28;20479;-64
2021/08/27 09:55:37;;;;;;;12.40;5.53;;;;;;;32.30;39.69;100258.72;5042557;28;20084;-64
2021/08/27 09:58:10;;;;;;;13.57;6.53;;;;;;;32.29;39.10;100250.50;5053630;28;20075;-63
2021/08/27 10:00:40;;;;;;;12.32;5.68;;;;;;;32.54;39.05;100276.94;5054746;28;20056;-64
2021/08/27 10:03:20;;;;;;;14.95;5.85;;;;;;;32.64;39.51;100269.34;5053251;28;20053;-63
2021/08/27 10:05:49;;;;;;;10.30;5.13;;;;;;;33.15;38.36;100275.91;5054630;28;20099;-62
2021/08/27 10:08:19;;;;;;;11.38;6.10;;;;;;;33.39;37.92;100258.50;5054559;28;20083;-62
2021/08/27 10:10:49;;;;;;;10.27;5.25;;;;;;;33.70;37.44;100253.31;5053162;28;20045;-62
2021/08/27 10:13:16;;;;;;;10.00;5.55;;;;;;;34.00;37.02;100274.59;5049943;28;20470;-63
2021/08/27 10:15:43;;;;;;;8.48;5.32;;;;;;;34.18;36.47;100278.72;5034436;28;20091;-62
2021/08/27 10:18:11;;;;;;;10.90;5.05;;;;;;;34.43;35.63;100272.34;5034666;28;20449;-63
2021/08/27 10:20:44;;;;;;;9.13;5.10;;;;;;;34.63;35.94;100256.97;5034359;28;20132;-63
2021/08/27 10:23:18;;;;;;;12.18;5.60;;;;;;;34.92;35.30;100280.25;5034294;28;20353;-63
2021/08/27 10:25:45;;;;;;;14.10;5.63;;;;;;;34.90;34.75;100283.59;5034291;28;20140;-63
2021/08/27 10:28:14;;;;;;;11.07;4.93;;;;;;;34.82;35.50;100269.75;5034347;28;20132;-63
2021/08/27 10:30:59;;;;;;;13.73;4.82;;;;;;;34.85;35.39;100277.53;5049533;28;20053;-62
2021/08/27 10:33:38;;;;;;;12.27;4.80;;;;;;;34.89;34.93;100286.94;5053922;28;20136;-62
2021/08/27 10:36:05;;;;;;;;;;;;;;;34.35;36.68;100288.25;5053204;28;20468;-62
2021/08/27 10:38:42;;;;;;;15.15;5.85;;;;;;;34.75;35.14;100290.22;5053851;28;20012;-63
2021/08/27 10:41:12;;;;;;;10.73;4.80;;;;;;;34.90;34.35;100269.06;5054104;28;20128;-62
2021/08/27 10:43:56;;;;;;;10.10;5.35;;;;;;;35.16;33.83;100288.75;5048851;28;20056;-62
2021/08/27 10:46:45;;;;;;;12.00;4.32;;;;;;;35.11;33.85;100276.44;5034051;28;20120;-62
2021/08/27 10:49:31;;;;;;;10.52;4.53;;;;;;;35.16;34.08;100289.56;5033631;28;20077;-62
2021/08/27 10:52:29;;;;;;;12.77;5.25;;;;;;;35.08;34.20;100283.16;5032789;28;20125;-63
2021/08/27 10:55:01;;;;;;;9.43;4.50;;;;;;;35.17;34.02;100285.41;5033504;28;20077;-63
2021/08/27 10:57:29;;;;;;;7.50;4.35;;;;;;;35.18;33.46;100292.00;5033896;28;20055;-63
2021/08/27 11:00:00;;;;;;;13.02;4.90;;;;;;;35.44;32.54;100278.44;5033680;28;20045;-64
2021/08/27 11:02:51;;;;;;;10.90;4.57;;;;;;;35.86;32.87;100285.06;5033375;28;20049;-63
2021/08/27 11:05:39;;;;;;;11.75;4.50;;;;;;;35.80;32.83;100302.28;5033969;28;20560;-62
2021/08/27 11:08:06;;;;;;;14.13;4.80;;;;;;;35.73;32.80;100316.22;5033666;28;20128;-63
2021/08/27 11:10:35;;;;;;;8.65;4.07;;;;;;;35.81;32.18;100291.47;5033506;28;20081;-62
2021/08/27 11:13:09;;;;;;;8.73;3.88;;;;;;;35.84;31.83;100302.19;5051543;28;20059;-62
2021/08/27 11:15:36;;;;;;;10.48;4.60;;;;;;;35.53;31.80;100325.91;5052073;28;20132;-62
2021/08/27 11:18:15;;;;;;;9.77;3.73;;;;;;;35.08;32.64;100300.56;5051468;28;20315;-63
2021/08/27 11:20:44;;;;;;;8.13;3.33;;;;;;;34.99;32.27;100303.25;5051041;28;20356;-62
2021/08/27 11:23:16;;;;;;;9.75;4.15;;;;;;;35.12;32.52;100307.09;5051818;28;20081;-62
2021/08/27 11:26:00;;;;;;;8.48;3.95;;;;;;;35.26;32.53;100310.88;5053194;28;20128;-62